Time;durP1;ratioP1;P1;durP2;ratioP2;P2;SDS_P1;SDS_P2;PMS_P1;PMS_P2;Temp;Humidity;BMP_temperature;BMP_pressure;BME280_temperature;BME280_humidity;BME280_pressure;Samples;Min_cycle;Max_cycle;Signal;HPM_P1;HPM_P2
2023/07/28 00:01:13;;;;;;;1.60;1.50;;;;;;;22.06;43.72;98205.16;5110797;28;20190;-57
2023/07/28 00:03:38;;;;;;;2.78;1.75;;;;;;;22.11;43.83;98208.06;5110782;28;20528;-57
2023/07/28 00:06:04;;;;;;;3.65;1.75;;;;;;;22.07;43.75;98190.97;5110645;28;20227;-57
2023/07/28 00:08:29;;;;;;;2.22;2.05;;;;;;;22.18;43.35;98214.22;5110625;28;20687;-57
2023/07/28 00:10:54;;;;;;;1.80;1.60;;;;;;;22.00;43.21;98193.53;5110608;28;20226;-57
2023/07/28 00:13:20;;;;;;;2.10;1.77;;;;;;;21.69;44.91;98197.31;5110388;28;20183;-57
2023/07/28 00:15:45;;;;;;;1.52;1.50;;;;;;;21.58;44.18;98174.00;5110249;28;20214;-56
2023/07/28 00:18:10;;;;;;;1.60;1.50;;;;;;;21.57;44.47;98199.50;5111638;28;20230;-57
2023/07/28 00:20:36;;;;;;;2.83;1.65;;;;;;;21.68;44.18;98206.22;5112960;28;20262;-57
2023/07/28 00:23:01;;;;;;;2.20;1.55;;;;;;;21.72;43.84;98186.41;5109940;28;20191;-57
2023/07/28 00:25:27;;;;;;;1.77;1.67;;;;;;;22.03;43.59;98210.78;5110176;28;20240;-56
2023/07/28 00:27:52;;;;;;;2.03;1.77;;;;;;;21.98;43.97;98213.16;5109890;28;20203;-57
2023/07/28 00:30:18;;;;;;;2.10;1.83;;;;;;;22.02;43.60;98214.44;5110167;28;20215;-57
2023/07/28 00:32:43;;;;;;;1.60;1.50;;;;;;;21.91;43.78;98212.25;5110118;28;20221;-57
2023/07/28 00:35:08;;;;;;;1.95;1.85;;;;;;;21.85;44.29;98218.22;5110058;28;20554;-56
2023/07/28 00:37:34;;;;;;;2.40;1.80;;;;;;;21.63;44.78;98198.78;5109702;28;20282;-56
2023/07/28 00:39:59;;;;;;;1.60;1.50;;;;;;;21.59;44.13;98181.75;5089136;28;20192;-56
2023/07/28 00:42:25;;;;;;;3.85;1.60;;;;;;;21.82;43.86;98205.41;5089668;28;20184;-57
2023/07/28 00:44:50;;;;;;;2.38;1.90;;;;;;;21.82;43.95;98210.69;5089512;28;20211;-56
2023/07/28 00:47:15;;;;;;;2.00;1.90;;;;;;;21.77;43.73;98189.31;5089369;28;20176;-57
2023/07/28 00:49:41;;;;;;;2.80;1.90;;;;;;;21.68;44.11;98191.22;5089243;28;20214;-57
2023/07/28 00:52:10;;;;;;;2.75;2.00;;;;;;;21.75;44.24;98212.41;5089326;28;20184;-56
2023/07/28 00:54:36;;;;;;;2.08;1.63;;;;;;;21.46;44.92;98212.31;5104353;28;20236;-56
2023/07/28 00:57:02;;;;;;;2.40;1.60;;;;;;;21.05;45.78;98171.53;5109521;28;20705;-56
2023/07/28 00:59:28;;;;;;;2.85;1.70;;;;;;;21.35;45.17;98210.09;5088721;28;20219;-56
2023/07/28 01:01:54;;;;;;;1.65;1.55;;;;;;;21.41;45.04;98204.13;5089085;28;20674;-56
2023/07/28 01:04:19;;;;;;;3.47;1.67;;;;;;;21.14;45.65;98166.00;5068626;28;20191;-56
2023/07/28 01:07:17;;;;;;;2.58;2.10;;;;;;;21.35;45.97;98210.09;5068729;28;20196;-56
2023/07/28 01:09:59;;;;;;;2.20;2.00;;;;;;;21.18;46.52;98205.94;4989151;28;20356;-56
2023/07/28 01:12:24;;;;;;;2.15;1.80;;;;;;;21.39;45.36;98200.84;4989556;28;20685;-56
2023/07/28 01:14:50;;;;;;;1.30;1.30;;;;;;;20.93;46.87;98175.56;4989463;28;20179;-56
2023/07/28 01:17:16;;;;;;;1.90;1.80;;;;;;;20.98;47.12;98195.06;4989511;28;20191;-56
2023/07/28 01:19:41;;;;;;;2.00;1.75;;;;;;;20.98;46.31;98174.03;4989385;28;20633;-57
2023/07/28 01:22:37;;;;;;;1.75;1.50;;;;;;;21.20;46.21;98196.06;4989442;28;20183;-56
2023/07/28 01:25:10;;;;;;;1.80;1.70;;;;;;;20.95;46.57;98176.19;4988778;28;20202;-56
2023/07/28 01:27:37;;;;;;;2.40;2.03;;;;;;;20.69;47.39;98186.22;4989537;28;20215;-56
2023/07/28 01:30:03;;;;;;;2.47;1.73;;;;;;;20.52;47.99;98197.81;4989235;28;20305;-56
2023/07/28 01:32:28;;;;;;;1.77;1.67;;;;;;;20.54;47.71;98182.66;4989404;28;20277;-56
2023/07/28 01:34:54;;;;;;;1.70;1.60;;;;;;;20.34;47.69;98170.94;4995819;28;20260;-56
2023/07/28 01:37:19;;;;;;;1.98;1.80;;;;;;;20.16;48.07;98173.00;5022295;28;20741;-56
2023/07/28 01:39:45;;;;;;;1.50;1.50;;;;;;;20.35;48.12;98202.28;5031921;28;20186;-56
2023/07/28 01:42:10;;;;;;;1.70;1.60;;;;;;;20.24;47.71;98170.34;5108979;28;20191;-56
2023/07/28 01:44:35;;;;;;;2.60;1.80;;;;;;;20.40;47.64;98202.59;5109247;28;20179;-56
2023/07/28 01:47:01;;;;;;;1.90;1.70;;;;;;;20.29;47.24;98170.63;5109163;28;20641;-56
2023/07/28 01:49:26;;;;;;;3.25;2.00;;;;;;;20.56;47.39;98206.97;5109054;28;20336;-56
2023/07/28 01:51:51;;;;;;;4.88;1.83;;;;;;;20.38;47.81;98203.75;5108981;28;20576;-56
2023/07/28 01:54:17;;;;;;;5.95;1.80;;;;;;;20.25;47.74;98177.22;5109013;28;20288;-56
2023/07/28 01:56:42;;;;;;;1.85;1.73;;;;;;;20.16;48.47;98204.53;5108658;28;20570;-56
2023/07/28 01:59:08;;;;;;;3.97;1.80;;;;;;;19.83;48.52;98172.25;5108825;28;20262;-56
2023/07/28 02:01:33;;;;;;;1.85;1.75;;;;;;;19.66;49.27;98170.66;5108790;28;20467;-55
2023/07/28 02:03:58;;;;;;;4.22;1.80;;;;;;;19.68;49.47;98191.47;5108905;28;20709;-56
2023/07/28 02:06:24;;;;;;;1.98;1.88;;;;;;;19.74;49.78;98211.81;5108760;28;20205;-56
2023/07/28 02:08:49;;;;;;;3.30;1.88;;;;;;;19.65;49.76;98189.19;5108751;28;20211;-56
2023/07/28 02:11:15;;;;;;;2.58;1.67;;;;;;;19.57;49.83;98192.66;5108864;28;20328;-56
2023/07/28 02:13:40;;;;;;;1.77;1.67;;;;;;;19.68;49.95;98221.19;5110205;28;20179;-56
2023/07/28 02:16:05;;;;;;;1.98;1.88;;;;;;;19.41;50.44;98191.84;5111094;28;20653;-56
2023/07/28 02:18:31;;;;;;;2.38;2.10;;;;;;;19.32;51.38;98221.69;5111049;28;20183;-55
2023/07/28 02:20:56;;;;;;;2.05;1.90;;;;;;;18.93;51.99;98194.41;5111339;28;20301;-55
2023/07/28 02:23:21;;;;;;;1.90;1.80;;;;;;;18.76;52.45;98188.34;5110993;28;20175;-55
2023/07/28 02:25:47;;;;;;;2.35;2.15;;;;;;;18.74;52.84;98192.94;5111052;28;20309;-56
2023/07/28 02:28:12;;;;;;;2.20;2.00;;;;;;;19.17;51.78;98229.34;5111109;28;20214;-55
2023/07/28 02:30:38;;;;;;;2.25;2.05;;;;;;;19.09;51.88;98218.88;5111053;28;20319;-56
2023/07/28 02:33:03;;;;;;;2.17;1.85;;;;;;;19.16;51.57;98211.16;5111257;28;20175;-56
2023/07/28 02:35:28;;;;;;;2.17;2.08;;;;;;;19.22;50.77;98207.91;5111391;28;20175;-56
2023/07/28 02:37:54;;;;;;;3.08;2.10;;;;;;;19.35;51.05;98224.81;5115021;28;20170;-56
2023/07/28 02:40:19;;;;;;;2.10;1.90;;;;;;;19.40;50.60;98214.63;5114938;28;20178;-56
2023/07/28 02:42:45;;;;;;;2.45;2.17;;;;;;;19.53;50.48;98211.53;5114918;28;20167;-56
2023/07/28 02:45:10;;;;;;;1.90;1.80;;;;;;;19.45;50.45;98188.72;5114883;28;20179;-56
2023/07/28 02:47:36;;;;;;;2.88;2.22;;;;;;;19.79;49.94;98233.97;5114780;28;20259;-56
2023/07/28 02:50:01;;;;;;;3.13;2.15;;;;;;;19.60;49.75;98204.63;5114936;28;20309;-56
2023/07/28 02:52:27;;;;;;;1.98;1.88;;;;;;;19.48;49.81;98184.94;5114745;28;20171;-56
2023/07/28 02:54:52;;;;;;;1.88;1.70;;;;;;;19.75;49.41;98216.91;5114903;28;20202;-56
2023/07/28 02:57:17;;;;;;;2.10;1.73;;;;;;;19.78;49.33;98219.22;5114710;28;20167;-56
2023/07/28 02:59:43;;;;;;;1.80;1.70;;;;;;;19.72;48.94;98216.41;5114062;27;20554;-56
2023/07/28 03:02:08;;;;;;;1.75;1.65;;;;;;;19.67;49.32;98219.56;5114201;28;20167;-56
2023/07/28 03:04:34;;;;;;;1.98;1.88;;;;;;;19.11;49.97;98189.88;5113969;28;20191;-56
2023/07/28 03:06:59;;;;;;;2.95;1.92;;;;;;;19.38;49.54;98224.50;5113546;28;20336;-56
2023/07/28 03:09:24;;;;;;;1.75;1.65;;;;;;;19.43;49.46;98218.75;5113918;28;20696;-56
2023/07/28 03:11:50;;;;;;;1.65;1.55;;;;;;;19.12;49.77;98192.31;5113847;28;20266;-56
2023/07/28 03:14:15;;;;;;;2.15;1.95;;;;;;;18.93;50.18;98215.38;5114207;28;20190;-56
2023/07/28 03:16:42;;;;;;;1.92;1.80;;;;;;;18.87;50.96;98208.16;5113971;28;20510;-56
2023/07/28 03:19:07;;;;;;;1.90;1.80;;;;;;;18.86;51.03;98193.44;5114037;28;20207;-56
2023/07/28 03:21:33;;;;;;;1.83;1.73;;;;;;;18.60;52.09;98221.56;5113766;28;20266;-56
2023/07/28 03:23:58;;;;;;;2.08;1.98;;;;;;;18.37;52.75;98210.81;5113653;28;20203;-56
2023/07/28 03:26:23;;;;;;;2.35;2.05;;;;;;;18.53;52.42;98231.03;5113769;27;20178;-57
2023/07/28 03:28:49;;;;;;;2.10;1.90;;;;;;;18.31;52.44;98206.22;5113485;28;20198;-56
2023/07/28 03:31:14;;;;;;;6.40;1.98;;;;;;;18.43;53.17;98246.06;5113460;28;20646;-56
2023/07/28 03:33:40;;;;;;;2.38;2.28;;;;;;;18.41;52.86;98245.41;5113184;28;20263;-56
2023/07/28 03:36:05;;;;;;;7.38;2.28;;;;;;;18.15;53.42;98215.78;5113534;27;20175;-56
2023/07/28 03:38:30;;;;;;;4.90;2.20;;;;;;;18.14;53.30;98225.41;5113601;27;20214;-56
2023/07/28 03:40:56;;;;;;;2.33;2.13;;;;;;;18.02;53.52;98213.56;5113409;28;20188;-56
2023/07/28 03:43:22;;;;;;;1.92;1.83;;;;;;;18.02;53.21;98205.72;5113404;28;20262;-57
2023/07/28 03:45:47;;;;;;;2.50;2.40;;;;;;;18.20;53.45;98244.94;5113406;28;20179;-56
2023/07/28 03:48:13;;;;;;;2.78;2.65;;;;;;;18.17;53.01;98224.28;5112839;28;20760;-56
2023/07/28 03:50:38;;;;;;;5.72;2.20;;;;;;;18.18;52.66;98237.22;5113134;28;20175;-56
2023/07/28 03:53:03;;;;;;;2.50;2.40;;;;;;;18.10;52.71;98218.03;5113079;28;20637;-56
2023/07/28 03:55:29;;;;;;;2.85;2.65;;;;;;;18.16;52.58;98230.50;5110444;28;20234;-55
2023/07/28 03:57:54;;;;;;;3.72;2.50;;;;;;;18.17;52.40;98222.50;5110470;28;20219;-55
2023/07/28 04:00:20;;;;;;;2.28;2.17;;;;;;;18.35;52.42;98259.09;5110559;28;20274;-56
2023/07/28 04:02:46;;;;;;;2.50;2.40;;;;;;;18.40;52.37;98262.09;5110290;28;20212;-56
2023/07/28 04:05:11;;;;;;;2.17;2.08;;;;;;;18.31;52.40;98236.81;5110197;28;20554;-55
2023/07/28 04:07:37;;;;;;;2.50;2.10;;;;;;;18.54;51.79;98269.38;5110149;28;20231;-56
2023/07/28 04:10:02;;;;;;;2.72;2.53;;;;;;;18.69;52.09;98267.75;5110108;28;20207;-56
2023/07/28 04:12:28;;;;;;;2.38;2.22;;;;;;;18.63;51.53;98244.81;5110111;28;20290;-56
2023/07/28 04:14:53;;;;;;;2.63;2.50;;;;;;;18.75;51.67;98270.59;5110074;28;20198;-56
2023/07/28 04:17:19;;;;;;;2.40;2.30;;;;;;;18.76;51.60;98272.22;5110171;28;20569;-56
2023/07/28 04:19:44;;;;;;;2.92;2.50;;;;;;;18.50;51.88;98233.97;5110162;28;20206;-56
2023/07/28 04:22:09;;;;;;;2.63;2.45;;;;;;;18.47;51.77;98231.69;5110194;28;20221;-56
2023/07/28 04:24:35;;;;;;;4.05;2.92;;;;;;;18.53;51.81;98236.28;5110021;28;20270;-56
2023/07/28 04:27:00;;;;;;;3.13;2.67;;;;;;;18.63;51.82;98250.88;5111592;28;20296;-55
2023/07/28 04:29:26;;;;;;;3.10;2.90;;;;;;;18.63;51.21;98234.31;5112418;28;20302;-55
2023/07/28 04:31:52;;;;;;;2.63;2.42;;;;;;;18.91;51.23;98280.28;5112379;28;20615;-55
2023/07/28 04:34:17;;;;;;;3.60;2.63;;;;;;;18.97;50.90;98277.03;5112320;28;20173;-56
2023/07/28 04:36:43;;;;;;;2.70;2.30;;;;;;;19.03;50.40;98261.47;5110112;28;20653;-56
2023/07/28 04:39:08;;;;;;;2.63;2.38;;;;;;;19.03;50.59;98266.72;5110011;28;20222;-56
2023/07/28 04:41:34;;;;;;;3.17;2.50;;;;;;;18.80;50.85;98249.13;5109986;28;20286;-56
2023/07/28 04:43:59;;;;;;;4.22;2.30;;;;;;;18.98;50.91;98281.28;5109898;28;20175;-56
2023/07/28 04:46:24;;;;;;;6.68;2.67;;;;;;;19.09;50.81;98283.59;5109685;28;20174;-56
2023/07/28 04:48:50;;;;;;;2.67;2.47;;;;;;;19.15;50.39;98273.31;5109658;28;20306;-56
2023/07/28 04:51:15;;;;;;;2.90;2.70;;;;;;;18.98;50.66;98257.69;5109710;28;20294;-56
2023/07/28 04:53:41;;;;;;;3.10;2.85;;;;;;;18.90;50.63;98234.91;5109552;28;20221;-56
2023/07/28 04:56:07;;;;;;;2.35;2.25;;;;;;;19.01;50.64;98263.44;5109479;28;20232;-56
2023/07/28 04:58:33;;;;;;;2.53;2.33;;;;;;;18.95;50.80;98258.03;5108946;28;20187;-55
2023/07/28 05:00:58;;;;;;;3.45;2.53;;;;;;;19.18;50.76;98277.41;5109329;28;20183;-56
2023/07/28 05:03:24;;;;;;;2.53;2.42;;;;;;;19.05;50.87;98263.97;5109329;28;20265;-56
2023/07/28 05:05:50;;;;;;;2.90;2.72;;;;;;;19.04;51.09;98268.38;5109489;28;20219;-56
2023/07/28 05:08:15;;;;;;;2.80;2.60;;;;;;;19.23;50.33;98268.09;5109347;28;20767;-56
2023/07/28 05:10:42;;;;;;;2.53;2.30;;;;;;;19.39;49.72;98268.13;5109478;28;20270;-56
2023/07/28 05:13:08;;;;;;;2.65;2.55;;;;;;;19.38;49.59;98258.59;5109491;28;20266;-56
2023/07/28 05:15:34;;;;;;;2.58;2.45;;;;;;;19.48;49.83;98290.75;5109217;28;20270;-56
2023/07/28 05:17:59;;;;;;;2.63;2.53;;;;;;;19.43;49.58;98273.84;5109257;28;20269;-56
2023/07/28 05:20:24;;;;;;;3.03;2.50;;;;;;;19.39;49.28;98268.13;5109349;28;20198;-56
2023/07/28 05:22:50;;;;;;;2.20;2.10;;;;;;;19.59;49.23;98268.63;5109465;28;20219;-56
2023/07/28 05:25:15;;;;;;;2.85;2.65;;;;;;;19.79;49.13;98296.16;5109340;28;20285;-56
2023/07/28 05:27:41;;;;;;;2.47;2.30;;;;;;;19.98;48.31;98299.25;5109377;28;20594;-56
2023/07/28 05:30:07;;;;;;;2.97;2.35;;;;;;;19.87;47.95;98277.78;5109254;28;20219;-56
2023/07/28 05:32:32;;;;;;;2.22;2.13;;;;;;;20.10;48.16;98305.03;5109365;28;20182;-56
2023/07/28 05:34:58;;;;;;;2.53;2.33;;;;;;;20.08;47.94;98285.97;5109272;28;20572;-56
2023/07/28 05:37:24;;;;;;;2.63;2.42;;;;;;;20.09;47.46;98287.63;5109178;28;20186;-57
2023/07/28 05:39:49;;;;;;;2.33;2.13;;;;;;;20.38;47.04;98320.25;5109303;28;20179;-56
2023/07/28 05:42:15;;;;;;;2.40;2.30;;;;;;;20.28;47.52;98316.16;5109084;28;20183;-54
2023/07/28 05:44:40;;;;;;;4.57;2.40;;;;;;;20.14;47.47;98295.81;5109040;28;20183;-55
2023/07/28 05:47:06;;;;;;;2.25;2.05;;;;;;;20.52;47.12;98327.41;5110716;28;20236;-56
2023/07/28 05:49:31;;;;;;;2.50;2.40;;;;;;;20.48;46.93;98309.53;5111645;28;20209;-56
2023/07/28 05:51:57;;;;;;;2.70;2.50;;;;;;;20.79;46.32;98320.91;5111715;28;20263;-56
2023/07/28 05:54:23;;;;;;;3.90;2.45;;;;;;;20.85;45.91;98307.91;5111633;28;20179;-56
2023/07/28 05:56:48;;;;;;;3.05;2.28;;;;;;;21.00;45.86;98323.81;5111687;28;20171;-56
2023/07/28 05:59:13;;;;;;;2.53;2.33;;;;;;;20.91;45.37;98295.91;5111614;28;20262;-56
2023/07/28 06:01:39;;;;;;;2.40;2.20;;;;;;;21.01;45.28;98289.44;5111620;28;20187;-56
2023/07/28 06:04:04;;;;;;;2.30;2.15;;;;;;;21.28;45.18;98327.63;5111490;28;20574;-56
2023/07/28 06:06:30;;;;;;;2.30;2.00;;;;;;;21.39;44.18;98311.41;5111520;28;20220;-56
2023/07/28 06:08:55;;;;;;;2.30;2.20;;;;;;;21.55;43.93;98319.19;5111382;28;20256;-56
2023/07/28 06:11:21;;;;;;;2.47;2.30;;;;;;;21.80;43.48;98325.97;5114691;28;20237;-56
2023/07/28 06:13:47;;;;;;;2.00;1.90;;;;;;;22.03;42.87;98332.81;5115408;28;20653;-56
2023/07/28 06:16:13;;;;;;;2.85;2.30;;;;;;;22.14;43.01;98331.59;5115392;28;20175;-56
2023/07/28 06:18:39;;;;;;;2.97;2.28;;;;;;;22.14;42.42;98303.41;5115211;28;20202;-56
2023/07/28 06:21:04;;;;;;;2.70;2.10;;;;;;;22.39;42.04;98335.63;5115215;28;20641;-56
2023/07/28 06:23:29;;;;;;;2.10;2.00;;;;;;;22.40;41.84;98327.53;5114981;28;20167;-56
2023/07/28 06:25:55;;;;;;;2.20;2.00;;;;;;;22.48;41.43;98324.00;5115118;28;20541;-57
2023/07/28 06:28:21;;;;;;;2.22;1.90;;;;;;;22.53;41.76;98329.53;5114725;28;20265;-56
2023/07/28 06:30:46;;;;;;;2.10;2.00;;;;;;;22.66;40.93;98311.28;5114922;27;20707;-56
2023/07/28 06:33:12;;;;;;;2.05;1.85;;;;;;;22.75;41.38;98307.53;5115056;28;20528;-56
2023/07/28 06:35:38;;;;;;;2.28;2.10;;;;;;;23.03;40.68;98334.88;5115037;28;20232;-56
2023/07/28 06:38:04;;;;;;;4.78;2.10;;;;;;;23.05;40.18;98311.75;5114793;28;20186;-56
2023/07/28 06:40:30;;;;;;;2.00;1.77;;;;;;;23.18;40.61;98314.56;5114870;28;20172;-56
2023/07/28 06:42:55;;;;;;;2.20;2.00;;;;;;;23.09;41.16;98292.75;5114858;28;20172;-56
2023/07/28 06:45:21;;;;;;;3.03;2.10;;;;;;;23.15;41.27;98307.00;5115117;28;20203;-56
2023/07/28 06:47:46;;;;;;;4.95;2.22;;;;;;;23.03;42.14;98306.69;5114712;28;20528;-56
2023/07/28 06:50:12;;;;;;;4.50;2.22;;;;;;;22.85;41.57;98290.41;5114671;28;20571;-56
2023/07/28 06:52:41;;;;;;;5.35;2.10;;;;;;;23.13;41.66;98317.75;5114605;28;20171;-56
2023/07/28 06:55:06;;;;;;;3.47;2.30;;;;;;;23.14;42.44;98284.25;5114480;28;20168;-56
2023/07/28 06:57:32;;;;;;;2.13;1.92;;;;;;;23.33;41.96;98291.59;5114423;28;20182;-56
2023/07/28 06:59:57;;;;;;;3.58;2.22;;;;;;;23.38;41.67;98290.03;5114588;28;20178;-56
2023/07/28 07:02:23;;;;;;;2.40;2.20;;;;;;;23.80;40.90;98314.59;5114510;28;20175;-56
2023/07/28 07:04:48;;;;;;;2.92;1.90;;;;;;;23.98;39.16;98299.13;5114484;28;20171;-56
2023/07/28 07:07:14;;;;;;;2.10;1.90;;;;;;;24.14;38.25;98293.56;5114554;28;20193;-57
2023/07/28 07:09:40;;;;;;;1.90;1.80;;;;;;;24.35;37.46;98306.72;5113975;28;20198;-56
2023/07/28 07:12:08;;;;;;;2.38;1.88;;;;;;;24.54;36.96;98310.47;5114260;28;20175;-56
2023/07/28 07:14:33;;;;;;;2.25;1.92;;;;;;;24.61;37.08;98312.19;5114222;28;20248;-56
2023/07/28 07:16:59;;;;;;;4.63;1.92;;;;;;;24.56;37.38;98276.72;5114133;28;20262;-56
2023/07/28 07:19:24;;;;;;;1.95;1.77;;;;;;;24.71;36.87;98280.91;5114075;28;20193;-57
2023/07/28 07:21:50;;;;;;;3.75;2.25;;;;;;;24.86;37.12;98301.94;5113254;28;20201;-56
2023/07/28 07:24:16;;;;;;;3.55;1.85;;;;;;;25.08;37.04;98312.19;5113927;28;20233;-56
2023/07/28 07:26:42;;;;;;;3.00;2.40;;;;;;;25.13;37.22;98304.47;5113990;28;20622;-56
2023/07/28 07:29:08;;;;;;;2.67;2.22;;;;;;;25.14;37.32;98284.13;5113872;28;20198;-56
2023/07/28 07:31:34;;;;;;;2.45;2.25;;;;;;;25.25;36.80;98289.66;5113890;28;20657;-56
2023/07/28 07:33:59;;;;;;;2.13;2.00;;;;;;;25.36;36.50;98309.47;5113900;27;20175;-57
2023/07/28 07:36:25;;;;;;;3.60;1.95;;;;;;;25.13;36.49;98279.84;5113787;28;20180;-57
2023/07/28 07:38:50;;;;;;;3.10;2.08;;;;;;;25.39;36.36;98307.25;5113857;28;20232;-57
2023/07/28 07:41:19;;;;;;;8.48;2.30;;;;;;;25.40;36.01;98287.69;5113586;28;20182;-57
2023/07/28 07:43:45;;;;;;;4.38;2.20;;;;;;;25.38;36.63;98296.84;5113481;28;20181;-57
2023/07/28 07:46:10;;;;;;;3.45;2.20;;;;;;;25.25;36.72;98284.38;5113215;28;20191;-57
2023/07/28 07:48:35;;;;;;;4.43;2.45;;;;;;;25.40;36.77;98300.09;5113443;28;20567;-56
2023/07/28 07:51:01;;;;;;;4.10;2.28;;;;;;;25.27;36.82;98271.75;5113283;28;20175;-56
2023/07/28 07:53:26;;;;;;;2.58;2.38;;;;;;;25.58;36.84;98306.47;5112908;28;20193;-56
2023/07/28 07:55:52;;;;;;;5.55;2.30;;;;;;;25.63;36.34;98300.53;5113226;28;20175;-56
2023/07/28 07:58:17;;;;;;;2.97;2.17;;;;;;;25.60;36.55;98285.84;5112832;28;20621;-56
2023/07/28 08:00:44;;;;;;;2.35;2.25;;;;;;;25.59;36.42;98294.84;5113151;28;20262;-57
2023/07/28 08:03:10;;;;;;;8.98;2.60;;;;;;;25.53;36.19;98271.78;5113307;28;20661;-57
2023/07/28 08:05:35;;;;;;;4.40;2.40;;;;;;;25.76;36.27;98288.13;5110418;28;20658;-56
2023/07/28 08:08:01;;;;;;;3.80;2.15;;;;;;;25.86;35.75;98287.72;5110610;28;20186;-56
2023/07/28 08:10:26;;;;;;;4.00;2.35;;;;;;;26.01;35.43;98294.47;5110581;28;20772;-56
2023/07/28 08:12:52;;;;;;;3.67;2.15;;;;;;;26.02;35.44;98272.22;5110527;28;20234;-57
2023/07/28 08:15:17;;;;;;;4.85;2.50;;;;;;;26.28;35.24;98296.09;5110506;28;20224;-56
2023/07/28 08:17:42;;;;;;;2.38;2.17;;;;;;;26.35;35.38;98291.56;5110467;28;20183;-56
2023/07/28 08:20:09;;;;;;;4.28;2.10;;;;;;;26.34;35.38;98282.00;5110538;28;20191;-57
2023/07/28 08:22:34;;;;;;;3.20;1.98;;;;;;;26.51;34.66;98290.31;5110475;28;20186;-57
2023/07/28 08:24:59;;;;;;;3.15;2.28;;;;;;;26.46;34.98;98263.56;5110331;28;20199;-57
2023/07/28 08:27:25;;;;;;;1.98;1.85;;;;;;;26.44;35.01;98277.06;5110253;28;20179;-56
2023/07/28 08:29:50;;;;;;;3.20;1.77;;;;;;;26.30;35.15;98264.84;5110122;28;20325;-56
2023/07/28 08:32:16;;;;;;;4.25;2.17;;;;;;;26.46;34.77;98277.66;5110353;28;20184;-57
2023/07/28 08:34:42;;;;;;;2.47;1.70;;;;;;;26.51;34.61;98256.63;5110003;28;20183;-56
2023/07/28 08:37:08;;;;;;;2.47;2.13;;;;;;;26.70;34.53;98276.22;5111937;28;20187;-57
2023/07/28 08:39:33;;;;;;;3.65;2.00;;;;;;;26.68;34.37;98249.88;5112475;28;20641;-56
2023/07/28 08:42:01;;;;;;;1.73;1.63;;;;;;;26.84;33.91;98280.44;5112173;28;20167;-57
2023/07/28 08:44:30;;;;;;;2.92;2.15;;;;;;;26.45;34.68;98254.81;5112304;28;20199;-57
2023/07/28 08:46:55;;;;;;;6.68;1.98;;;;;;;26.52;34.35;98238.84;5112138;28;20171;-56
2023/07/28 08:49:21;;;;;;;1.88;1.77;;;;;;;26.80;33.66;98266.78;5112476;28;20222;-57
2023/07/28 08:51:57;;;;;;;3.58;2.03;;;;;;;26.92;34.48;98259.75;5112403;28;20203;-57
2023/07/28 08:54:23;;;;;;;7.28;2.10;;;;;;;26.93;33.68;98250.78;5112348;28;20179;-57
2023/07/28 08:56:48;;;;;;;2.25;2.05;;;;;;;27.02;33.37;98254.00;5112151;28;20171;-56
2023/07/28 08:59:21;;;;;;;2.17;1.98;;;;;;;27.12;32.96;98249.84;5112085;28;20255;-57
2023/07/28 09:01:50;;;;;;;2.70;2.50;;;;;;;27.13;33.06;98245.34;5112175;28;20175;-57
2023/07/28 09:04:15;;;;;;;2.63;2.42;;;;;;;27.36;32.39;98261.59;5111984;28;20173;-57
2023/07/28 09:06:44;;;;;;;4.60;2.20;;;;;;;27.28;32.48;98257.34;5112323;28;20182;-57
2023/07/28 09:09:10;;;;;;;2.63;2.15;;;;;;;27.34;32.48;98261.81;5112065;28;20203;-57
2023/07/28 09:11:48;;;;;;;5.72;2.55;;;;;;;27.24;31.98;98221.59;5112115;28;20706;-56
2023/07/28 09:14:14;;;;;;;3.00;2.00;;;;;;;27.46;31.51;98235.38;5112105;28;20182;-57
2023/07/28 09:16:40;;;;;;;3.88;2.38;;;;;;;27.62;31.56;98240.97;5111953;28;20262;-57
2023/07/28 09:19:07;;;;;;;4.10;2.28;;;;;;;27.62;31.53;98240.13;5111977;28;20595;-57
2023/07/28 09:21:33;;;;;;;5.75;2.53;;;;;;;27.73;31.19;98234.94;5112041;28;20179;-56
2023/07/28 09:24:05;;;;;;;5.57;2.40;;;;;;;27.81;31.31;98228.56;5111460;28;20218;-57
2023/07/28 09:26:45;;;;;;;6.90;2.50;;;;;;;27.97;31.36;98254.59;5111840;28;20253;-57
2023/07/28 09:29:19;;;;;;;5.38;2.33;;;;;;;27.91;30.80;98231.53;5112047;28;20548;-57
2023/07/28 09:31:49;;;;;;;4.00;2.40;;;;;;;27.81;30.25;98213.41;5111999;28;20174;-57
2023/07/28 09:34:26;;;;;;;4.30;2.63;;;;;;;27.89;30.47;98231.78;5111975;28;20182;-57
2023/07/28 09:36:56;;;;;;;6.18;2.50;;;;;;;27.86;31.03;98220.75;5111821;28;20167;-56
2023/07/28 09:39:22;;;;;;;6.38;2.55;;;;;;;27.74;30.75;98212.63;5111500;28;20604;-57
2023/07/28 09:41:48;;;;;;;5.25;2.70;;;;;;;27.96;31.14;98226.38;5111889;28;20178;-57
2023/07/28 09:44:14;;;;;;;3.13;2.83;;;;;;;27.98;30.66;98219.00;5111868;28;20172;-57
2023/07/28 09:46:54;;;;;;;8.27;3.65;;;;;;;28.16;30.25;98221.69;5115651;28;20179;-57
2023/07/28 09:49:36;;;;;;;4.57;2.58;;;;;;;28.27;30.92;98219.09;5115739;28;20214;-57
2023/07/28 09:52:08;;;;;;;5.15;3.00;;;;;;;28.08;30.47;98193.50;5115929;28;20171;-57
2023/07/28 09:54:39;;;;;;;2.92;2.63;;;;;;;28.22;30.28;98204.84;5116070;28;20194;-57
2023/07/28 09:57:19;;;;;;;4.75;2.88;;;;;;;28.21;29.61;98189.91;5115757;28;20210;-57
2023/07/28 09:59:47;;;;;;;5.43;3.00;;;;;;;28.03;30.13;98176.56;5115895;28;20183;-56
2023/07/28 10:02:16;;;;;;;4.90;2.95;;;;;;;28.31;30.33;98203.50;5116058;28;20194;-57
2023/07/28 10:04:42;;;;;;;4.30;2.70;;;;;;;28.31;30.65;98193.66;5115618;28;20211;-57
2023/07/28 10:07:09;;;;;;;6.20;2.88;;;;;;;28.30;30.73;98200.03;5112934;28;20237;-57
2023/07/28 10:09:36;;;;;;;7.55;3.25;;;;;;;28.31;30.70;98187.50;5113068;28;20722;-57
2023/07/28 10:12:03;;;;;;;4.32;2.63;;;;;;;28.11;29.92;98165.66;5113024;28;20187;-57
2023/07/28 10:14:31;;;;;;;5.85;2.53;;;;;;;28.23;29.58;98191.28;5112928;28;20167;-57
2023/07/28 10:16:59;;;;;;;7.18;2.72;;;;;;;28.25;30.19;98173.25;5113055;28;20229;-57
2023/07/28 10:19:26;;;;;;;5.50;2.80;;;;;;;28.37;29.88;98187.47;5113027;28;20769;-57
2023/07/28 10:22:09;;;;;;;2.78;2.58;;;;;;;28.46;30.09;98169.34;5112849;28;20198;-56
2023/07/28 10:24:55;;;;;;;5.53;3.35;;;;;;;28.51;29.55;98150.88;5112881;28;20718;-57
2023/07/28 10:27:45;;;;;;;7.88;3.63;;;;;;;28.86;29.64;98181.13;5112800;28;20199;-57
2023/07/28 10:30:13;;;;;;;3.47;2.75;;;;;;;28.97;29.34;98178.53;5112738;28;20234;-57
2023/07/28 10:32:41;;;;;;;6.80;2.58;;;;;;;28.79;28.69;98143.13;5112963;28;20269;-57
2023/07/28 10:35:17;;;;;;;3.20;2.67;;;;;;;28.75;28.58;98145.41;5112689;28;20171;-57
2023/07/28 10:37:46;;;;;;;2.47;2.28;;;;;;;28.90;29.05;98167.13;5113360;28;20278;-57
2023/07/28 10:40:33;;;;;;;2.90;2.55;;;;;;;29.01;29.31;98139.72;5115254;28;20227;-57
2023/07/28 10:42:59;;;;;;;6.82;2.78;;;;;;;29.37;29.10;98146.72;5114495;28;20547;-56
2023/07/28 10:45:27;;;;;;;4.97;2.35;;;;;;;29.62;28.21;98150.06;5114868;28;20170;-55
2023/07/28 10:47:55;;;;;;;2.92;2.65;;;;;;;29.79;27.83;98143.78;5114813;28;20669;-55
2023/07/28 10:50:21;;;;;;;8.82;3.10;;;;;;;30.14;27.12;98157.91;5114597;28;20211;-57
2023/07/28 10:52:47;;;;;;;4.47;2.83;;;;;;;30.44;26.94;98155.88;5114812;28;20182;-56
2023/07/28 10:55:17;;;;;;;5.05;2.53;;;;;;;30.59;26.81;98126.78;5114351;28;20171;-56
2023/07/28 10:57:44;;;;;;;3.03;2.58;;;;;;;31.03;25.88;98159.97;5113237;27;20278;-56
2023/07/28 11:00:14;;;;;;;5.47;2.40;;;;;;;31.03;25.90;98134.06;5114503;28;20172;-56
2023/07/28 11:02:52;;;;;;;2.47;2.00;;;;;;;31.25;25.03;98155.56;5114531;28;20173;-56
2023/07/28 11:05:22;;;;;;;2.53;2.20;;;;;;;31.36;25.56;98138.66;5114370;28;20217;-56
2023/07/28 11:07:49;;;;;;;5.78;2.15;;;;;;;31.32;25.38;98110.75;5114298;28;20179;-56
2023/07/28 11:10:15;;;;;;;3.20;2.20;;;;;;;31.79;24.28;98150.31;5114392;28;20202;-57
2023/07/28 11:12:44;;;;;;;3.42;2.30;;;;;;;31.92;25.03;98152.63;5114394;28;20235;-56
2023/07/28 11:15:12;;;;;;;4.32;2.38;;;;;;;31.29;25.20;98122.75;5114287;28;20266;-56
2023/07/28 11:17:39;;;;;;;2.92;2.25;;;;;;;31.45;24.98;98129.97;5114252;28;20179;-56
2023/07/28 11:20:14;;;;;;;3.50;1.92;;;;;;;31.49;24.45;98128.41;5114191;28;20186;-57
2023/07/28 11:22:39;;;;;;;6.55;2.20;;;;;;;31.64;24.45;98112.59;5114209;28;20171;-56
2023/07/28 11:25:09;;;;;;;3.50;2.00;;;;;;;31.93;23.54;98111.41;5114107;28;20265;-56
2023/07/28 11:27:36;;;;;;;3.90;1.90;;;;;;;31.74;23.57;98142.22;5114105;28;20179;-57
2023/07/28 11:30:03;;;;;;;3.88;1.83;;;;;;;31.03;23.55;98107.31;5114017;28;20194;-56
2023/07/28 11:32:30;;;;;;;6.88;2.10;;;;;;;31.57;23.52;98136.03;5113976;28;20182;-56